sensor_id;sensor_type;location;lat;lon;timestamp;pressure;altitude;pressure_sealevel;temperature;humidity
2785;BME280;57944;48.722;9.316;2023-05-09T00:01:57;98347.09;;;13.14;100.00
2785;BME280;57944;48.722;9.316;2023-05-09T00:04:30;98346.13;;;13.02;100.00
2785;BME280;57944;48.722;9.316;2023-05-09T00:07:01;98346.53;;;12.99;100.00
2785;BME280;57944;48.722;9.316;2023-05-09T00:09:31;98342.59;;;12.96;100.00
2785;BME280;57944;48.722;9.316;2023-05-09T00:12:01;98337.47;;;12.96;100.00
2785;BME280;57944;48.722;9.316;2023-05-09T00:14:31;98335.13;;;13.02;100.00
2785;BME280;57944;48.722;9.316;2023-05-09T00:17:02;98336.69;;;13.03;100.00
2785;BME280;57944;48.722;9.316;2023-05-09T00:19:34;98339.63;;;13.00;100.00
2785;BME280;57944;48.722;9.316;2023-05-09T00:22:05;98331.97;;;13.00;100.00
2785;BME280;57944;48.722;9.316;2023-05-09T00:24:35;98336.69;;;12.96;100.00
2785;BME280;57944;48.722;9.316;2023-05-09T00:27:05;98326.25;;;12.91;100.00
2785;BME280;57944;48.722;9.316;2023-05-09T00:29:35;98326.84;;;12.93;100.00
2785;BME280;57944;48.722;9.316;2023-05-09T00:32:05;98321.72;;;13.00;100.00
2785;BME280;57944;48.722;9.316;2023-05-09T00:34:38;98324.03;;;13.34;100.00
2785;BME280;57944;48.722;9.316;2023-05-09T00:37:08;98317.72;;;13.44;100.00
2785;BME280;57944;48.722;9.316;2023-05-09T00:39:38;98313.75;;;13.54;100.00
2785;BME280;57944;48.722;9.316;2023-05-09T00:42:08;98302.66;;;13.74;100.00
2785;BME280;57944;48.722;9.316;2023-05-09T00:44:38;98313.81;;;13.86;100.00
2785;BME280;57944;48.722;9.316;2023-05-09T00:47:08;98304.56;;;13.85;100.00
2785;BME280;57944;48.722;9.316;2023-05-09T00:49:40;98309.75;;;13.72;100.00
2785;BME280;57944;48.722;9.316;2023-05-09T00:52:10;98297.63;;;13.92;100.00
2785;BME280;57944;48.722;9.316;2023-05-09T00:54:40;98301.44;;;13.83;100.00
2785;BME280;57944;48.722;9.316;2023-05-09T00:57:10;98295.88;;;13.86;100.00
2785;BME280;57944;48.722;9.316;2023-05-09T00:59:40;98298.59;;;13.98;100.00
2785;BME280;57944;48.722;9.316;2023-05-09T01:02:10;98293.56;;;13.78;100.00
2785;BME280;57944;48.722;9.316;2023-05-09T01:04:43;98292.50;;;13.47;100.00
2785;BME280;57944;48.722;9.316;2023-05-09T01:07:20;98287.81;;;13.24;100.00
2785;BME280;57944;48.722;9.316;2023-05-09T01:09:57;98281.94;;;13.24;100.00
2785;BME280;57944;48.722;9.316;2023-05-09T01:12:35;98295.69;;;13.23;100.00
2785;BME280;57944;48.722;9.316;2023-05-09T01:15:11;98275.66;;;13.13;100.00
2785;BME280;57944;48.722;9.316;2023-05-09T01:17:50;98282.53;;;13.26;100.00
2785;BME280;57944;48.722;9.316;2023-05-09T01:20:29;98285.66;;;13.28;100.00
2785;BME280;57944;48.722;9.316;2023-05-09T01:23:11;98280.38;;;13.16;100.00
2785;BME280;57944;48.722;9.316;2023-05-09T01:25:52;98289.78;;;13.29;100.00
2785;BME280;57944;48.722;9.316;2023-05-09T01:28:50;98286.03;;;13.25;100.00
2785;BME280;57944;48.722;9.316;2023-05-09T01:31:27;98281.94;;;13.24;100.00
2785;BME280;57944;48.722;9.316;2023-05-09T01:34:01;98293.94;;;13.16;100.00
2785;BME280;57944;48.722;9.316;2023-05-09T01:36:33;98288.22;;;13.14;100.00
2785;BME280;57944;48.722;9.316;2023-05-09T01:39:06;98284.09;;;13.13;100.00
2785;BME280;57944;48.722;9.316;2023-05-09T01:41:40;98282.34;;;13.07;100.00
2785;BME280;57944;48.722;9.316;2023-05-09T01:44:11;98284.34;;;12.99;100.00
2785;BME280;57944;48.722;9.316;2023-05-09T01:46:46;98275.69;;;12.93;100.00
2785;BME280;57944;48.722;9.316;2023-05-09T01:49:16;98273.31;;;12.98;100.00
2785;BME280;57944;48.722;9.316;2023-05-09T01:51:49;98280.59;;;13.01;100.00
2785;BME280;57944;48.722;9.316;2023-05-09T01:54:21;98272.53;;;12.97;100.00
2785;BME280;57944;48.722;9.316;2023-05-09T01:56:53;98283.94;;;12.95;100.00
2785;BME280;57944;48.722;9.316;2023-05-09T01:59:25;98267.63;;;12.83;100.00
2785;BME280;57944;48.722;9.316;2023-05-09T02:01:58;98267.44;;;12.71;100.00
2785;BME280;57944;48.722;9.316;2023-05-09T02:04:29;98267.06;;;12.54;100.00
2785;BME280;57944;48.722;9.316;2023-05-09T02:07:00;98258.38;;;12.28;100.00
2785;BME280;57944;48.722;9.316;2023-05-09T02:09:31;98265.25;;;12.08;100.00
2785;BME280;57944;48.722;9.316;2023-05-09T02:12:02;98260.63;;;11.83;100.00
2785;BME280;57944;48.722;9.316;2023-05-09T02:14:32;98262.03;;;11.79;100.00
2785;BME280;57944;48.722;9.316;2023-05-09T02:17:05;98265.56;;;11.78;100.00
2785;BME280;57944;48.722;9.316;2023-05-09T02:19:35;98261.34;;;11.57;100.00
2785;BME280;57944;48.722;9.316;2023-05-09T02:22:06;98266.63;;;11.49;100.00
2785;BME280;57944;48.722;9.316;2023-05-09T02:24:36;98263.22;;;11.35;100.00
2785;BME280;57944;48.722;9.316;2023-05-09T02:27:07;98264.00;;;11.36;100.00
2785;BME280;57944;48.722;9.316;2023-05-09T02:29:43;98272.09;;;11.39;100.00
2785;BME280;57944;48.722;9.316;2023-05-09T02:32:21;98270.56;;;11.45;100.00
2785;BME280;57944;48.722;9.316;2023-05-09T02:34:53;98270.34;;;11.47;100.00
2785;BME280;57944;48.722;9.316;2023-05-09T02:37:23;98273.13;;;11.52;100.00
2785;BME280;57944;48.722;9.316;2023-05-09T02:39:54;98273.56;;;11.62;100.00
2785;BME280;57944;48.722;9.316;2023-05-09T02:42:26;98273.00;;;11.73;100.00
2785;BME280;57944;48.722;9.316;2023-05-09T02:44:56;98264.97;;;11.76;100.00
2785;BME280;57944;48.722;9.316;2023-05-09T02:47:28;98262.84;;;11.87;100.00
2785;BME280;57944;48.722;9.316;2023-05-09T02:49:59;98267.03;;;12.01;100.00
2785;BME280;57944;48.722;9.316;2023-05-09T02:52:30;98268.63;;;12.15;100.00
2785;BME280;57944;48.722;9.316;2023-05-09T02:55:01;98253.06;;;12.17;100.00
2785;BME280;57944;48.722;9.316;2023-05-09T02:57:35;98251.94;;;12.26;100.00
2785;BME280;57944;48.722;9.316;2023-05-09T03:00:06;98244.84;;;12.35;100.00
2785;BME280;57944;48.722;9.316;2023-05-09T03:02:40;98251.31;;;12.30;100.00
2785;BME280;57944;48.722;9.316;2023-05-09T03:05:15;98246.22;;;12.44;100.00
2785;BME280;57944;48.722;9.316;2023-05-09T03:07:45;98237.34;;;12.53;100.00
2785;BME280;57944;48.722;9.316;2023-05-09T03:10:17;98237.56;;;12.65;100.00
2785;BME280;57944;48.722;9.316;2023-05-09T03:12:47;98230.41;;;13.00;100.00
2785;BME280;57944;48.722;9.316;2023-05-09T03:15:17;98236.69;;;13.11;100.00
2785;BME280;57944;48.722;9.316;2023-05-09T03:17:50;98240.19;;;13.30;100.00
2785;BME280;57944;48.722;9.316;2023-05-09T03:20:21;98232.47;;;13.43;100.00
2785;BME280;57944;48.722;9.316;2023-05-09T03:22:51;98231.66;;;13.49;100.00
2785;BME280;57944;48.722;9.316;2023-05-09T03:25:21;98228.94;;;13.31;100.00
2785;BME280;57944;48.722;9.316;2023-05-09T03:27:52;98229.19;;;13.16;100.00
2785;BME280;57944;48.722;9.316;2023-05-09T03:30:23;98226.50;;;12.91;100.00
2785;BME280;57944;48.722;9.316;2023-05-09T03:32:57;98225.16;;;12.68;100.00
2785;BME280;57944;48.722;9.316;2023-05-09T03:35:27;98223.41;;;12.62;100.00
2785;BME280;57944;48.722;9.316;2023-05-09T03:37:57;98223.56;;;12.67;100.00
2785;BME280;57944;48.722;9.316;2023-05-09T03:40:27;98218.47;;;12.67;100.00
2785;BME280;57944;48.722;9.316;2023-05-09T03:43:04;98222.22;;;12.58;100.00
2785;BME280;57944;48.722;9.316;2023-05-09T03:45:35;98213.94;;;12.56;100.00
2785;BME280;57944;48.722;9.316;2023-05-09T03:48:10;98210.81;;;12.54;100.00
2785;BME280;57944;48.722;9.316;2023-05-09T03:50:45;98211.97;;;12.58;100.00
2785;BME280;57944;48.722;9.316;2023-05-09T03:53:16;98206.88;;;12.58;100.00
2785;BME280;57944;48.722;9.316;2023-05-09T03:55:47;98211.94;;;12.78;100.00
2785;BME280;57944;48.722;9.316;2023-05-09T03:58:17;98214.47;;;12.91;100.00
2785;BME280;57944;48.722;9.316;2023-05-09T04:00:48;98211.97;;;12.71;100.00
2785;BME280;57944;48.722;9.316;2023-05-09T04:03:24;98215.94;;;12.54;100.00
2785;BME280;57944;48.722;9.316;2023-05-09T04:05:54;98214.94;;;12.55;100.00
2785;BME280;57944;48.722;9.316;2023-05-09T04:08:30;98211.78;;;12.53;100.00
2785;BME280;57944;48.722;9.316;2023-05-09T04:11:02;98218.88;;;12.51;100.00
2785;BME280;57944;48.722;9.316;2023-05-09T04:13:33;98220.84;;;12.36;100.00
2785;BME280;57944;48.722;9.316;2023-05-09T04:16:11;98213.38;;;12.54;100.00
2785;BME280;57944;48.722;9.316;2023-05-09T04:18:45;98220.81;;;12.75;100.00
2785;BME280;57944;48.722;9.316;2023-05-09T04:21:15;98221.19;;;12.86;100.00
2785;BME280;57944;48.722;9.316;2023-05-09T04:23:48;98222.59;;;12.82;100.00
2785;BME280;57944;48.722;9.316;2023-05-09T04:26:25;98221.59;;;12.83;100.00
2785;BME280;57944;48.722;9.316;2023-05-09T04:28:58;98225.88;;;13.02;100.00
2785;BME280;57944;48.722;9.316;2023-05-09T04:31:28;98223.66;;;13.32;100.00
2785;BME280;57944;48.722;9.316;2023-05-09T04:34:02;98221.72;;;13.66;100.00
2785;BME280;57944;48.722;9.316;2023-05-09T04:36:34;98230.06;;;13.86;100.00
2785;BME280;57944;48.722;9.316;2023-05-09T04:39:04;98231.97;;;13.98;100.00
2785;BME280;57944;48.722;9.316;2023-05-09T04:41:35;98233.91;;;14.02;100.00
2785;BME280;57944;48.722;9.316;2023-05-09T04:44:05;98224.72;;;14.20;100.00
2785;BME280;57944;48.722;9.316;2023-05-09T04:46:35;98228.56;;;14.29;100.00
2785;BME280;57944;48.722;9.316;2023-05-09T04:49:08;98226.13;;;14.16;100.00
2785;BME280;57944;48.722;9.316;2023-05-09T04:51:38;98241.75;;;14.07;100.00
2785;BME280;57944;48.722;9.316;2023-05-09T04:54:08;98238.66;;;13.99;100.00
2785;BME280;57944;48.722;9.316;2023-05-09T04:56:40;98238.63;;;14.05;100.00
2785;BME280;57944;48.722;9.316;2023-05-09T04:59:10;98230.69;;;14.14;100.00
2785;BME280;57944;48.722;9.316;2023-05-09T05:01:40;98232.81;;;14.17;100.00
2785;BME280;57944;48.722;9.316;2023-05-09T05:04:13;98230.16;;;14.05;100.00
2785;BME280;57944;48.722;9.316;2023-05-09T05:06:43;98226.91;;;14.16;100.00
2785;BME280;57944;48.722;9.316;2023-05-09T05:09:13;98231.78;;;14.24;100.00
2785;BME280;57944;48.722;9.316;2023-05-09T05:11:44;98235.22;;;14.37;100.00
2785;BME280;57944;48.722;9.316;2023-05-09T05:14:28;98239.44;;;14.56;100.00
2785;BME280;57944;48.722;9.316;2023-05-09T05:16:58;98222.38;;;14.87;100.00
2785;BME280;57944;48.722;9.316;2023-05-09T05:19:31;98232.50;;;15.18;100.00
2785;BME280;57944;48.722;9.316;2023-05-09T05:22:03;98221.56;;;15.41;100.00
2785;BME280;57944;48.722;9.316;2023-05-09T05:24:35;98226.19;;;15.81;100.00
2785;BME280;57944;48.722;9.316;2023-05-09T05:27:05;98224.09;;;15.90;100.00
2785;BME280;57944;48.722;9.316;2023-05-09T05:29:36;98218.91;;;16.20;100.00
2785;BME280;57944;48.722;9.316;2023-05-09T05:32:06;98217.69;;;16.23;100.00
2785;BME280;57944;48.722;9.316;2023-05-09T05:34:39;98216.78;;;16.29;100.00
2785;BME280;57944;48.722;9.316;2023-05-09T05:37:09;98213.56;;;16.34;100.00
2785;BME280;57944;48.722;9.316;2023-05-09T05:39:40;98211.88;;;16.27;100.00
2785;BME280;57944;48.722;9.316;2023-05-09T05:42:10;98206.06;;;16.32;100.00
2785;BME280;57944;48.722;9.316;2023-05-09T05:44:40;98203.59;;;16.37;100.00
2785;BME280;57944;48.722;9.316;2023-05-09T05:47:11;98208.09;;;16.30;100.00
2785;BME280;57944;48.722;9.316;2023-05-09T05:49:44;98207.06;;;16.31;100.00
2785;BME280;57944;48.722;9.316;2023-05-09T05:52:15;98205.59;;;16.23;100.00
2785;BME280;57944;48.722;9.316;2023-05-09T05:54:45;98198.97;;;16.04;100.00
2785;BME280;57944;48.722;9.316;2023-05-09T05:57:15;98189.28;;;16.06;100.00
2785;BME280;57944;48.722;9.316;2023-05-09T05:59:46;98189.34;;;15.88;100.00
2785;BME280;57944;48.722;9.316;2023-05-09T06:02:17;98193.69;;;15.87;100.00
2785;BME280;57944;48.722;9.316;2023-05-09T06:04:50;98192.22;;;15.79;100.00
2785;BME280;57944;48.722;9.316;2023-05-09T06:07:22;98194.00;;;15.79;100.00
2785;BME280;57944;48.722;9.316;2023-05-09T06:09:53;98192.34;;;15.84;100.00
2785;BME280;57944;48.722;9.316;2023-05-09T06:12:23;98179.31;;;15.98;100.00
2785;BME280;57944;48.722;9.316;2023-05-09T06:14:54;98182.81;;;16.27;100.00
2785;BME280;57944;48.722;9.316;2023-05-09T06:17:24;98183.69;;;16.56;100.00
2785;BME280;57944;48.722;9.316;2023-05-09T06:19:57;98187.84;;;16.81;100.00
2785;BME280;57944;48.722;9.316;2023-05-09T06:22:27;98190.28;;;17.28;100.00
2785;BME280;57944;48.722;9.316;2023-05-09T06:24:57;98193.31;;;17.82;100.00
2785;BME280;57944;48.722;9.316;2023-05-09T06:27:28;98189.53;;;18.40;100.00
2785;BME280;57944;48.722;9.316;2023-05-09T06:29:58;98179.38;;;18.89;100.00
2785;BME280;57944;48.722;9.316;2023-05-09T06:32:40;98180.19;;;20.03;98.02
2785;BME280;57944;48.722;9.316;2023-05-09T06:35:13;98172.69;;;20.97;89.94
2785;BME280;57944;48.722;9.316;2023-05-09T06:37:43;98181.31;;;22.56;76.71
2785;BME280;57944;48.722;9.316;2023-05-09T06:40:15;98178.78;;;23.50;64.07
2785;BME280;57944;48.722;9.316;2023-05-09T06:42:45;98174.06;;;24.50;56.20
2785;BME280;57944;48.722;9.316;2023-05-09T06:45:15;98171.03;;;25.42;52.78
2785;BME280;57944;48.722;9.316;2023-05-09T06:47:45;98177.84;;;26.23;49.04
2785;BME280;57944;48.722;9.316;2023-05-09T06:50:18;98169.47;;;27.04;46.33
2785;BME280;57944;48.722;9.316;2023-05-09T06:52:48;98170.00;;;26.23;47.79
2785;BME280;57944;48.722;9.316;2023-05-09T06:55:18;98170.09;;;26.18;48.53
2785;BME280;57944;48.722;9.316;2023-05-09T06:57:48;98154.63;;;25.75;48.03
2785;BME280;57944;48.722;9.316;2023-05-09T07:00:19;98156.59;;;25.31;50.53
2785;BME280;57944;48.722;9.316;2023-05-09T07:02:49;98151.47;;;24.64;52.85
2785;BME280;57944;48.722;9.316;2023-05-09T07:05:22;98150.88;;;24.91;52.99
2785;BME280;57944;48.722;9.316;2023-05-09T07:07:52;98157.44;;;26.11;48.45
2785;BME280;57944;48.722;9.316;2023-05-09T07:10:22;98146.59;;;26.59;46.51
2785;BME280;57944;48.722;9.316;2023-05-09T07:12:53;98145.63;;;26.41;47.13
2785;BME280;57944;48.722;9.316;2023-05-09T07:15:23;98138.06;;;26.67;46.42
2785;BME280;57944;48.722;9.316;2023-05-09T07:18:08;98134.94;;;26.79;45.58
2785;BME280;57944;48.722;9.316;2023-05-09T07:20:40;98130.19;;;27.85;43.21
2785;BME280;57944;48.722;9.316;2023-05-09T07:23:10;98128.94;;;27.82;42.82
2785;BME280;57944;48.722;9.316;2023-05-09T07:25:40;98124.81;;;28.39;42.44
2785;BME280;57944;48.722;9.316;2023-05-09T07:28:11;98115.94;;;27.46;43.77
2785;BME280;57944;48.722;9.316;2023-05-09T07:30:41;98126.31;;;26.92;45.01
2785;BME280;57944;48.722;9.316;2023-05-09T07:33:11;98119.38;;;26.46;46.26
2785;BME280;57944;48.722;9.316;2023-05-09T07:35:44;98104.75;;;26.45;46.35
2785;BME280;57944;48.722;9.316;2023-05-09T07:38:14;98097.06;;;27.13;45.12
2785;BME280;57944;48.722;9.316;2023-05-09T07:40:44;98084.66;;;28.12;43.09
2785;BME280;57944;48.722;9.316;2023-05-09T07:43:14;98084.97;;;29.11;40.51
2785;BME280;57944;48.722;9.316;2023-05-09T07:45:44;98079.19;;;28.40;40.65
2785;BME280;57944;48.722;9.316;2023-05-09T07:48:14;98084.81;;;28.07;40.99
2785;BME280;57944;48.722;9.316;2023-05-09T07:50:46;98076.47;;;27.74;42.26
2785;BME280;57944;48.722;9.316;2023-05-09T07:53:16;98075.72;;;28.13;41.82
2785;BME280;57944;48.722;9.316;2023-05-09T07:55:46;98066.25;;;27.86;41.67
2785;BME280;57944;48.722;9.316;2023-05-09T07:58:16;98064.81;;;28.28;41.46
2785;BME280;57944;48.722;9.316;2023-05-09T08:00:46;98056.72;;;28.65;39.72
2785;BME280;57944;48.722;9.316;2023-05-09T08:03:16;98048.84;;;29.55;38.95
2785;BME280;57944;48.722;9.316;2023-05-09T08:05:52;98053.75;;;29.01;39.24
2785;BME280;57944;48.722;9.316;2023-05-09T08:08:22;98050.22;;;28.71;39.33
2785;BME280;57944;48.722;9.316;2023-05-09T08:10:53;98042.59;;;28.17;40.75
2785;BME280;57944;48.722;9.316;2023-05-09T08:13:23;98041.09;;;28.34;41.07
2785;BME280;57944;48.722;9.316;2023-05-09T08:15:53;98038.94;;;28.96;40.28
2785;BME280;57944;48.722;9.316;2023-05-09T08:18:23;98035.94;;;29.33;39.58
2785;BME280;57944;48.722;9.316;2023-05-09T08:20:55;98031.84;;;28.80;39.60
2785;BME280;57944;48.722;9.316;2023-05-09T08:23:25;98026.88;;;28.09;41.35
2785;BME280;57944;48.722;9.316;2023-05-09T08:25:56;98025.50;;;28.28;41.44
2785;BME280;57944;48.722;9.316;2023-05-09T08:28:26;98015.16;;;28.32;40.63
2785;BME280;57944;48.722;9.316;2023-05-09T08:30:56;98013.78;;;28.35;41.09
2785;BME280;57944;48.722;9.316;2023-05-09T08:33:26;98005.97;;;27.46;41.20
2785;BME280;57944;48.722;9.316;2023-05-09T08:35:59;98004.44;;;27.14;42.29
2785;BME280;57944;48.722;9.316;2023-05-09T08:38:29;98002.34;;;26.43;44.75
2785;BME280;57944;48.722;9.316;2023-05-09T08:40:59;97993.44;;;26.58;44.87
2785;BME280;57944;48.722;9.316;2023-05-09T08:43:32;97988.97;;;27.04;44.47
2785;BME280;57944;48.722;9.316;2023-05-09T08:46:06;97985.84;;;28.04;42.62
2785;BME280;57944;48.722;9.316;2023-05-09T08:48:38;97984.06;;;28.57;41.54
2785;BME280;57944;48.722;9.316;2023-05-09T08:51:11;97979.31;;;29.61;38.98
2785;BME280;57944;48.722;9.316;2023-05-09T08:53:42;97967.84;;;28.63;40.42
2785;BME280;57944;48.722;9.316;2023-05-09T08:56:12;97974.91;;;28.19;40.98
2785;BME280;57944;48.722;9.316;2023-05-09T08:58:43;97986.78;;;28.78;40.73
2785;BME280;57944;48.722;9.316;2023-05-09T09:01:13;97972.88;;;28.94;39.33
2785;BME280;57944;48.722;9.316;2023-05-09T09:03:45;97974.78;;;28.77;40.74
2785;BME280;57944;48.722;9.316;2023-05-09T09:06:18;97979.41;;;30.03;37.96
2785;BME280;57944;48.722;9.316;2023-05-09T09:08:53;97983.53;;;30.34;37.04
2785;BME280;57944;48.722;9.316;2023-05-09T09:11:23;97984.69;;;29.74;38.09
2785;BME280;57944;48.722;9.316;2023-05-09T09:13:54;97965.06;;;30.76;36.30
2785;BME280;57944;48.722;9.316;2023-05-09T09:16:28;97968.91;;;31.24;35.59
2785;BME280;57944;48.722;9.316;2023-05-09T09:18:58;97961.56;;;31.67;35.10
2785;BME280;57944;48.722;9.316;2023-05-09T09:21:32;97954.41;;;30.72;35.57
2785;BME280;57944;48.722;9.316;2023-05-09T09:24:03;97959.47;;;31.23;35.15
2785;BME280;57944;48.722;9.316;2023-05-09T09:26:44;97950.13;;;31.26;34.85
2785;BME280;57944;48.722;9.316;2023-05-09T09:29:16;97947.72;;;31.08;34.72
2785;BME280;57944;48.722;9.316;2023-05-09T09:31:51;97948.41;;;31.54;34.69
2785;BME280;57944;48.722;9.316;2023-05-09T09:34:22;97954.50;;;31.83;33.59
2785;BME280;57944;48.722;9.316;2023-05-09T09:36:55;97951.44;;;30.20;35.89
2785;BME280;57944;48.722;9.316;2023-05-09T09:39:25;97933.84;;;28.93;38.46
2785;BME280;57944;48.722;9.316;2023-05-09T09:41:55;97923.13;;;28.51;39.10
2785;BME280;57944;48.722;9.316;2023-05-09T09:44:25;97923.38;;;29.31;38.29
2785;BME280;57944;48.722;9.316;2023-05-09T09:46:56;97926.31;;;30.31;36.96
2785;BME280;57944;48.722;9.316;2023-05-09T09:49:27;97915.78;;;30.98;35.04
2785;BME280;57944;48.722;9.316;2023-05-09T09:51:59;97922.28;;;31.49;34.36
2785;BME280;57944;48.722;9.316;2023-05-09T09:54:30;97916.72;;;32.60;32.63
2785;BME280;57944;48.722;9.316;2023-05-09T09:57:00;97917.28;;;31.97;33.81
2785;BME280;57944;48.722;9.316;2023-05-09T09:59:30;97905.47;;;31.17;34.58
2785;BME280;57944;48.722;9.316;2023-05-09T10:02:02;97891.97;;;30.82;34.71
2785;BME280;57944;48.722;9.316;2023-05-09T10:04:35;97891.28;;;30.39;35.27
2785;BME280;57944;48.722;9.316;2023-05-09T10:07:10;97879.72;;;30.53;34.77
2785;BME280;57944;48.722;9.316;2023-05-09T10:09:41;97878.56;;;28.51;37.94
2785;BME280;57944;48.722;9.316;2023-05-09T10:12:11;97875.97;;;27.24;41.27
2785;BME280;57944;48.722;9.316;2023-05-09T10:14:46;97873.28;;;27.64;40.86
2785;BME280;57944;48.722;9.316;2023-05-09T10:17:18;97872.53;;;27.72;40.73
2785;BME280;57944;48.722;9.316;2023-05-09T10:19:51;97864.25;;;27.88;40.40
2785;BME280;57944;48.722;9.316;2023-05-09T10:22:24;97870.06;;;28.19;39.31
2785;BME280;57944;48.722;9.316;2023-05-09T10:25:00;97865.59;;;28.55;39.07
2785;BME280;57944;48.722;9.316;2023-05-09T10:27:33;97852.50;;;27.76;40.69
2785;BME280;57944;48.722;9.316;2023-05-09T10:30:07;97847.91;;;27.91;42.81
2785;BME280;57944;48.722;9.316;2023-05-09T10:32:41;97851.41;;;29.32;39.51
2785;BME280;57944;48.722;9.316;2023-05-09T10:35:12;97850.50;;;30.33;37.56
2785;BME280;57944;48.722;9.316;2023-05-09T10:37:46;97836.91;;;31.78;35.10
2785;BME280;57944;48.722;9.316;2023-05-09T10:40:18;97834.69;;;31.28;35.61
2785;BME280;57944;48.722;9.316;2023-05-09T10:42:48;97829.34;;;31.24;35.55
2785;BME280;57944;48.722;9.316;2023-05-09T10:45:19;97824.22;;;30.33;37.01
2785;BME280;57944;48.722;9.316;2023-05-09T10:47:50;97817.16;;;31.44;36.16
2785;BME280;57944;48.722;9.316;2023-05-09T10:50:23;97826.28;;;31.10;36.31
2785;BME280;57944;48.722;9.316;2023-05-09T10:53:11;97820.34;;;32.06;34.27
2785;BME280;57944;48.722;9.316;2023-05-09T10:55:51;97825.75;;;32.25;35.22
2785;BME280;57944;48.722;9.316;2023-05-09T10:58:24;97827.53;;;32.37;35.22
2785;BME280;57944;48.722;9.316;2023-05-09T11:00:55;97824.06;;;33.32;33.61
2785;BME280;57944;48.722;9.316;2023-05-09T11:03:26;97806.88;;;33.38;33.82
2785;BME280;57944;48.722;9.316;2023-05-09T11:05:57;97807.56;;;33.74;32.81
2785;BME280;57944;48.722;9.316;2023-05-09T11:08:30;97797.91;;;34.24;31.96
2785;BME280;57944;48.722;9.316;2023-05-09T11:11:05;97787.91;;;34.60;30.77
2785;BME280;57944;48.722;9.316;2023-05-09T11:13:36;97781.88;;;34.59;30.12
2785;BME280;57944;48.722;9.316;2023-05-09T11:16:10;97773.59;;;33.18;31.55
2785;BME280;57944;48.722;9.316;2023-05-09T11:18:51;97774.66;;;32.97;32.54
2785;BME280;57944;48.722;9.316;2023-05-09T11:21:21;97773.75;;;33.44;31.86
2785;BME280;57944;48.722;9.316;2023-05-09T11:23:54;97761.97;;;33.57;31.73
2785;BME280;57944;48.722;9.316;2023-05-09T11:26:27;97757.09;;;32.38;32.79
2785;BME280;57944;48.722;9.316;2023-05-09T11:28:58;97753.91;;;31.72;34.44
2785;BME280;57944;48.722;9.316;2023-05-09T11:31:28;97752.38;;;30.90;35.86
2785;BME280;57944;48.722;9.316;2023-05-09T11:34:00;97749.19;;;30.36;36.96
2785;BME280;57944;48.722;9.316;2023-05-09T11:36:32;97732.78;;;30.05;37.86
2785;BME280;57944;48.722;9.316;2023-05-09T11:39:07;97725.38;;;29.53;38.21
2785;BME280;57944;48.722;9.316;2023-05-09T11:41:39;97725.50;;;29.36;38.67
2785;BME280;57944;48.722;9.316;2023-05-09T11:44:14;97714.88;;;29.53;38.29
2785;BME280;57944;48.722;9.316;2023-05-09T11:46:45;97717.41;;;28.99;38.95
2785;BME280;57944;48.722;9.316;2023-05-09T11:49:15;97713.97;;;28.10;40.61
2785;BME280;57944;48.722;9.316;2023-05-09T11:51:46;97717.56;;;27.88;41.59
2785;BME280;57944;48.722;9.316;2023-05-09T11:54:19;97712.19;;;28.69;39.80
2785;BME280;57944;48.722;9.316;2023-05-09T11:56:52;97710.31;;;29.96;38.12
2785;BME280;57944;48.722;9.316;2023-05-09T11:59:22;97701.75;;;30.32;37.24
2785;BME280;57944;48.722;9.316;2023-05-09T12:01:52;97699.97;;;30.36;37.20
2785;BME280;57944;48.722;9.316;2023-05-09T12:04:23;97702.06;;;30.55;36.72
2785;BME280;57944;48.722;9.316;2023-05-09T12:06:53;97690.88;;;31.79;35.05
2785;BME280;57944;48.722;9.316;2023-05-09T12:09:28;97697.50;;;31.45;35.37
2785;BME280;57944;48.722;9.316;2023-05-09T12:12:00;97685.81;;;31.30;35.06
2785;BME280;57944;48.722;9.316;2023-05-09T12:14:33;97686.81;;;30.85;35.66
2785;BME280;57944;48.722;9.316;2023-05-09T12:17:03;97675.66;;;30.52;36.29
2785;BME280;57944;48.722;9.316;2023-05-09T12:19:33;97679.69;;;31.26;35.50
2785;BME280;57944;48.722;9.316;2023-05-09T12:22:03;97667.75;;;31.89;34.34
2785;BME280;57944;48.722;9.316;2023-05-09T12:24:37;97668.56;;;31.61;34.29
2785;BME280;57944;48.722;9.316;2023-05-09T12:27:07;97663.59;;;30.63;35.82
2785;BME280;57944;48.722;9.316;2023-05-09T12:29:37;97653.66;;;30.97;35.72
2785;BME280;57944;48.722;9.316;2023-05-09T12:32:12;97648.56;;;31.16;35.03
2785;BME280;57944;48.722;9.316;2023-05-09T12:34:42;97644.81;;;31.17;35.08
2785;BME280;57944;48.722;9.316;2023-05-09T12:37:14;97639.47;;;31.13;35.10
2785;BME280;57944;48.722;9.316;2023-05-09T12:40:04;97636.88;;;30.24;35.65
2785;BME280;57944;48.722;9.316;2023-05-09T12:42:35;97633.16;;;30.25;36.34
2785;BME280;57944;48.722;9.316;2023-05-09T12:45:07;97624.66;;;30.81;35.12
2785;BME280;57944;48.722;9.316;2023-05-09T12:47:38;97615.72;;;30.98;34.72
2785;BME280;57944;48.722;9.316;2023-05-09T12:50:10;97611.16;;;30.70;34.70
2785;BME280;57944;48.722;9.316;2023-05-09T12:52:41;97607.34;;;31.08;35.02
2785;BME280;57944;48.722;9.316;2023-05-09T12:55:38;97618.41;;;31.42;33.63
2785;BME280;57944;48.722;9.316;2023-05-09T12:58:13;97606.28;;;30.19;34.91
2785;BME280;57944;48.722;9.316;2023-05-09T13:00:44;97599.50;;;30.43;35.49
2785;BME280;57944;48.722;9.316;2023-05-09T13:03:21;97603.38;;;31.14;34.41
2785;BME280;57944;48.722;9.316;2023-05-09T13:05:58;97597.13;;;31.06;34.96
2785;BME280;57944;48.722;9.316;2023-05-09T13:08:28;97596.88;;;31.24;34.25
2785;BME280;57944;48.722;9.316;2023-05-09T13:11:01;97589.78;;;31.56;33.27
2785;BME280;57944;48.722;9.316;2023-05-09T13:13:42;97583.72;;;31.39;33.27
2785;BME280;57944;48.722;9.316;2023-05-09T13:16:12;97572.69;;;31.06;33.81
2785;BME280;57944;48.722;9.316;2023-05-09T13:18:43;97563.16;;;30.73;34.44
2785;BME280;57944;48.722;9.316;2023-05-09T13:21:14;97559.72;;;30.57;33.23
2785;BME280;57944;48.722;9.316;2023-05-09T13:23:43;97555.81;;;30.14;35.16
2785;BME280;57944;48.722;9.316;2023-05-09T13:26:18;97552.59;;;30.45;34.16
2785;BME280;57944;48.722;9.316;2023-05-09T13:28:48;97548.75;;;30.55;34.50
2785;BME280;57944;48.722;9.316;2023-05-09T13:31:18;97548.13;;;30.21;35.65